Time;durP1;ratioP1;P1;durP2;ratioP2;P2;SDS_P1;SDS_P2;PMS_P1;PMS_P2;Temp;Humidity;BMP_temperature;BMP_pressure;BME280_temperature;BME280_humidity;BME280_pressure;Samples;Min_cycle;Max_cycle;Signal;HPM_P1;HPM_P2
2022/02/06 00:01:19;;;;;;;11.13;4.38;;;4.60;99.90;;;;;;5104603;28;20061;-48
2022/02/06 00:03:45;;;;;;;16.98;6.93;;;4.50;99.90;;;;;;5089817;28;20023;-49
2022/02/06 00:06:10;;;;;;;7.82;3.28;;;4.50;99.90;;;;;;5105003;28;20028;-48
2022/02/06 00:08:38;;;;;;;9.10;3.90;;;4.50;99.90;;;;;;5091370;28;20031;-46
2022/02/06 00:11:04;;;;;;;8.88;3.72;;;4.50;99.90;;;;;;5106073;28;20325;-47
2022/02/06 00:13:29;;;;;;;12.23;3.97;;;4.40;99.90;;;;;;5095103;28;20207;-46
2022/02/06 00:15:55;;;;;;;12.45;4.93;;;4.40;99.90;;;;;;5098286;28;20587;-47
2022/02/06 00:18:20;;;;;;;9.48;3.58;;;4.30;99.90;;;;;;5094919;28;20039;-46
2022/02/06 00:20:48;;;;;;;3.22;2.10;;;4.30;99.90;;;;;;5104255;28;20040;-48
2022/02/06 00:23:16;;;;;;;6.13;2.10;;;4.30;99.90;;;;;;5089622;28;20043;-46
2022/02/06 00:28:22;;;;;;;4.95;2.15;;;4.20;99.90;;;;;;5097058;28;20436;-47
2022/02/06 00:41:22;;;;;;;4.90;2.85;;;4.20;99.90;;;;;;5098111;28;20431;-48
2022/02/06 00:43:48;;;;;;;7.03;2.20;;;4.20;99.90;;;;;;5081520;28;20519;-49
2022/02/06 00:46:15;;;;;;;5.82;1.98;;;4.20;99.90;;;;;;5086297;28;20121;-48
2022/02/06 00:48:44;;;;;;;8.98;3.17;;;4.20;99.90;;;;;;5106762;28;20042;-49
2022/02/06 00:54:08;;;;;;;5.85;2.05;;;4.30;99.90;;;;;;5048637;28;20039;-46
2022/02/06 00:56:34;;;;;;;7.32;2.97;;;4.30;99.90;;;;;;5097217;28;20132;-49
2022/02/06 00:59:00;;;;;;;8.88;3.55;;;4.20;99.90;;;;;;5105691;28;20126;-48
2022/02/06 01:01:25;;;;;;;12.88;3.65;;;4.20;99.90;;;;;;5092205;28;20179;-51
2022/02/06 01:03:53;;;;;;;9.50;4.25;;;4.30;99.90;;;;;;5090132;28;20451;-46
2022/02/06 01:06:19;;;;;;;7.32;2.50;;;4.30;99.90;;;;;;5098884;28;20129;-47
2022/02/06 01:08:44;;;;;;;3.78;1.90;;;4.30;99.90;;;;;;5094001;28;20031;-49
2022/02/06 01:11:11;;;;;;;10.73;3.70;;;4.30;99.90;;;;;;5095596;28;20035;-47
2022/02/06 01:16:31;;;;;;;6.38;2.97;;;4.30;99.90;;;;;;5093626;28;20042;-47
2022/02/06 01:19:02;;;;;;;9.80;2.63;;;4.30;99.90;;;;;;5096144;28;20032;-48
2022/02/06 01:24:17;;;;;;;5.50;2.33;;;4.40;99.90;;;;;;5086564;28;20042;-46
2022/02/06 01:26:57;;;;;;;7.18;2.80;;;4.40;99.90;;;;;;5089230;28;20111;-47
2022/02/06 01:31:58;;;;;;;5.15;1.80;;;4.40;99.90;;;;;;5106063;28;20026;-47
2022/02/06 01:34:32;;;;;;;8.13;1.98;;;4.50;99.90;;;;;;5095149;28;20036;-48
2022/02/06 01:37:08;;;;;;;3.08;1.50;;;4.50;99.90;;;;;;5100243;28;20055;-49
2022/02/06 01:39:53;;;;;;;1.73;1.33;;;4.50;99.90;;;;;;5104064;28;20665;-49
2022/02/06 01:42:43;;;;;;;4.78;1.50;;;4.50;99.90;;;;;;5105321;28;20024;-47
2022/02/06 02:01:57;;;;;;;4.05;1.40;;;4.80;99.90;;;;;;5097963;28;20152;-50
2022/02/06 02:07:44;;;;;;;5.65;1.30;;;4.70;99.90;;;;;;5102047;28;20512;-48
2022/02/06 02:12:49;;;;;;;3.05;1.50;;;4.60;99.90;;;;;;5102154;28;20116;-47
2022/02/06 02:21:13;;;;;;;5.60;1.42;;;4.60;99.90;;;;;;5101053;28;20063;-49
2022/02/06 02:24:10;;;;;;;3.35;1.63;;;4.60;99.90;;;;;;5101681;28;20047;-49
2022/02/06 02:48:06;;;;;;;3.55;1.50;;;4.70;99.90;;;;;;5085286;28;20135;-50
2022/02/06 02:50:36;;;;;;;3.60;1.50;;;4.60;99.90;;;;;;5107787;28;20032;-51
2022/02/06 02:53:15;;;;;;;6.15;1.52;;;4.60;99.90;;;;;;5099593;28;20040;-48
2022/02/06 02:56:08;;;;;;;4.53;1.35;;;4.60;99.90;;;;;;5107513;28;20043;-50
2022/02/06 03:01:14;;;;;;;2.35;1.42;;;4.60;99.90;;;;;;5107963;28;20151;-52
2022/02/06 03:03:41;;;;;;;5.10;1.80;;;4.70;99.90;;;;;;5088339;28;20035;-51
2022/02/06 03:06:08;;;;;;;4.57;1.70;;;4.60;99.90;;;;;;5102717;28;20036;-49
2022/02/06 03:08:36;;;;;;;3.97;1.45;;;4.70;99.90;;;;;;5087609;28;20028;-53
2022/02/06 03:11:06;;;;;;;4.70;1.35;;;4.60;99.90;;;;;;5107978;28;20579;-50
2022/02/06 03:18:44;;;;;;;3.15;1.40;;;4.70;99.90;;;;;;5107446;28;20042;-47
2022/02/06 03:21:17;;;;;;;5.15;1.48;;;4.70;99.90;;;;;;5089827;28;20052;-51
2022/02/06 03:23:48;;;;;;;5.32;1.45;;;4.70;99.90;;;;;;5089444;28;20039;-51
2022/02/06 03:26:14;;;;;;;7.75;1.35;;;4.70;99.90;;;;;;5088344;28;20040;-49
2022/02/06 03:28:39;;;;;;;8.43;1.67;;;4.70;99.90;;;;;;5110839;28;20026;-51
2022/02/06 03:31:06;;;;;;;3.65;1.73;;;4.70;99.90;;;;;;5110381;28;20042;-48
2022/02/06 03:33:32;;;;;;;3.25;1.70;;;4.70;99.90;;;;;;5108629;28;20047;-50
2022/02/06 03:35:58;;;;;;;4.15;1.80;;;4.70;99.90;;;;;;5110396;28;20094;-47
2022/02/06 03:38:23;;;;;;;5.20;2.08;;;4.70;99.90;;;;;;5090125;28;20082;-50
2022/02/06 03:40:55;;;;;;;2.72;1.33;;;4.70;99.90;;;;;;5109909;28;20031;-53
2022/02/06 03:43:30;;;;;;;2.95;1.40;;;4.70;99.90;;;;;;5099186;28;20058;-52
2022/02/06 03:46:06;;;;;;;4.13;1.63;;;4.70;99.90;;;;;;5090223;28;20032;-52
2022/02/06 03:48:49;;;;;;;5.00;1.52;;;4.70;99.90;;;;;;5088276;28;20028;-52
2022/02/06 03:51:35;;;;;;;3.65;1.88;;;4.80;99.90;;;;;;5087958;28;20309;-51
2022/02/06 03:54:01;;;;;;;5.93;1.65;;;4.70;99.90;;;;;;5110180;28;20064;-51
2022/02/06 03:56:28;;;;;;;4.03;1.90;;;4.80;99.90;;;;;;5107851;28;20039;-58
2022/02/06 03:58:54;;;;;;;5.05;1.58;;;4.70;99.90;;;;;;5109926;28;20444;-57
2022/02/06 04:01:20;;;;;;;4.93;2.13;;;4.70;99.90;;;;;;5107460;28;20062;-58
2022/02/06 04:03:45;;;;;;;2.80;1.42;;;4.70;99.90;;;;;;5110156;28;20040;-57
2022/02/06 04:06:11;;;;;;;7.80;1.70;;;4.80;99.90;;;;;;5109604;28;20525;-58
2022/02/06 04:08:38;;;;;;;4.22;1.42;;;4.70;99.90;;;;;;5108131;28;20023;-59
2022/02/06 04:11:08;;;;;;;4.63;1.58;;;4.70;99.90;;;;;;5109724;28;20039;-59
2022/02/06 04:13:39;;;;;;;4.45;1.50;;;4.70;99.90;;;;;;5088040;28;20028;-58
2022/02/06 04:16:11;;;;;;;5.97;1.75;;;4.70;99.90;;;;;;5089503;28;20031;-58
2022/02/06 04:18:49;;;;;;;4.68;1.60;;;4.70;99.90;;;;;;5107875;28;20429;-59
2022/02/06 04:21:14;;;;;;;3.78;1.48;;;4.70;99.90;;;;;;5087181;28;20068;-58
2022/02/06 04:23:40;;;;;;;5.05;1.60;;;4.80;99.90;;;;;;5107588;28;20078;-58
2022/02/06 04:26:05;;;;;;;5.90;1.70;;;4.80;99.90;;;;;;5099850;28;20035;-57
2022/02/06 04:28:31;;;;;;;6.82;1.67;;;4.80;99.90;;;;;;5103899;28;20023;-58
2022/02/06 04:30:56;;;;;;;5.20;1.63;;;4.80;99.90;;;;;;5106978;28;20024;-58
2022/02/06 04:33:22;;;;;;;5.35;1.88;;;4.80;99.90;;;;;;5106380;28;20028;-59
2022/02/06 04:35:50;;;;;;;2.80;1.50;;;4.80;99.90;;;;;;5090525;28;20062;-57
2022/02/06 04:38:50;;;;;;;3.33;1.40;;;4.80;99.90;;;;;;5103815;28;20388;-57
2022/02/06 04:44:30;;;;;;;8.13;2.13;;;4.80;99.90;;;;;;5087806;28;20249;-57
2022/02/06 04:52:49;;;;;;;6.68;1.80;;;4.80;99.90;;;;;;5104351;28;20073;-58
2022/02/06 05:11:36;;;;;;;5.50;1.90;;;4.90;99.90;;;;;;5094074;28;20057;-56
2022/02/06 05:24:44;;;;;;;7.53;2.20;;;4.90;99.90;;;;;;5112596;28;20023;-59
2022/02/06 05:29:57;;;;;;;6.55;1.77;;;4.90;99.90;;;;;;5112834;28;20395;-56
2022/02/06 05:32:36;;;;;;;3.80;1.80;;;4.90;99.90;;;;;;5110031;28;20020;-58
2022/02/06 05:35:02;;;;;;;3.58;1.60;;;4.80;99.90;;;;;;5092551;28;20047;-55
2022/02/06 05:37:28;;;;;;;6.80;1.80;;;4.80;99.90;;;;;;5110402;28;20087;-57
2022/02/06 05:39:54;;;;;;;3.10;1.50;;;4.80;99.90;;;;;;5112732;28;20107;-57
2022/02/06 05:42:20;;;;;;;2.60;1.40;;;4.80;99.90;;;;;;5103439;28;20077;-58
2022/02/06 05:44:53;;;;;;;6.40;1.70;;;4.80;99.90;;;;;;5094273;28;20024;-57
2022/02/06 05:47:19;;;;;;;3.38;1.55;;;4.80;99.90;;;;;;5109180;28;20040;-57
2022/02/06 05:49:44;;;;;;;3.47;1.40;;;4.80;99.90;;;;;;5112590;28;20016;-58
2022/02/06 05:52:10;;;;;;;4.43;1.55;;;4.80;99.90;;;;;;5093051;28;20225;-57
2022/02/06 05:54:36;;;;;;;3.42;1.67;;;4.80;99.90;;;;;;5111789;28;20410;-58
2022/02/06 05:57:02;;;;;;;5.35;1.98;;;4.90;99.90;;;;;;5110424;28;20063;-58
2022/02/06 05:59:27;;;;;;;3.92;1.73;;;4.90;99.90;;;;;;5112326;28;20032;-58
2022/02/06 06:01:55;;;;;;;4.25;1.67;;;4.90;99.90;;;;;;5095204;28;20067;-57
2022/02/06 06:04:20;;;;;;;2.55;1.50;;;4.90;99.90;;;;;;5111797;28;20406;-58
2022/02/06 06:06:46;;;;;;;4.97;2.08;;;4.90;99.90;;;;;;5110317;28;20031;-56
2022/02/06 06:09:11;;;;;;;3.78;1.60;;;4.90;99.90;;;;;;5111872;28;20027;-59
2022/02/06 06:11:37;;;;;;;3.05;1.60;;;4.90;99.90;;;;;;5097261;28;20059;-56
2022/02/06 06:14:02;;;;;;;2.53;1.50;;;4.90;99.90;;;;;;5111589;28;20078;-58
2022/02/06 06:16:28;;;;;;;3.65;1.35;;;5.00;99.90;;;;;;5109919;28;20112;-57
2022/02/06 06:18:53;;;;;;;4.72;1.30;;;5.00;99.90;;;;;;5111980;28;20031;-58
2022/02/06 06:21:22;;;;;;;3.97;1.70;;;5.00;99.90;;;;;;5109592;28;20058;-58
2022/02/06 06:23:47;;;;;;;5.95;1.58;;;5.00;99.90;;;;;;5111508;28;20031;-59
2022/02/06 06:26:16;;;;;;;3.35;1.40;;;5.00;99.90;;;;;;5109675;28;20031;-58
2022/02/06 06:28:42;;;;;;;2.10;1.20;;;5.00;99.90;;;;;;5111667;28;20036;-56
2022/02/06 06:31:08;;;;;;;3.75;1.33;;;5.10;99.90;;;;;;5109597;28;20039;-58
2022/02/06 06:33:34;;;;;;;2.92;1.38;;;5.10;99.90;;;;;;5111421;28;20503;-58
2022/02/06 06:35:59;;;;;;;3.35;1.00;;;5.10;99.90;;;;;;5109461;28;20035;-58
2022/02/06 06:38:25;;;;;;;5.22;1.48;;;5.10;99.90;;;;;;5111561;28;20085;-59
2022/02/06 06:40:52;;;;;;;2.10;1.30;;;5.20;99.90;;;;;;5109559;28;20027;-56
2022/02/06 06:43:18;;;;;;;6.95;1.45;;;5.10;99.90;;;;;;5107727;28;20045;-57
2022/02/06 06:45:43;;;;;;;2.42;0.98;;;5.20;99.90;;;;;;5109447;28;20098;-56
2022/02/06 06:48:09;;;;;;;4.10;2.08;;;5.20;99.90;;;;;;5111598;28;20288;-58
2022/02/06 06:50:34;;;;;;;1.98;1.38;;;5.20;99.90;;;;;;5109269;28;20055;-58
2022/02/06 06:53:03;;;;;;;1.60;1.08;;;5.20;99.90;;;;;;5111372;28;20060;-57
2022/02/06 06:55:31;;;;;;;2.05;1.30;;;5.20;99.90;;;;;;5109283;28;20016;-58
2022/02/06 06:58:07;;;;;;;2.22;1.40;;;5.20;99.90;;;;;;5111165;28;20115;-55
2022/02/06 07:00:39;;;;;;;3.83;1.40;;;5.20;99.90;;;;;;5092786;28;20202;-57
2022/02/06 07:03:05;;;;;;;4.70;1.45;;;5.20;99.90;;;;;;5111200;28;20036;-57
2022/02/06 07:05:31;;;;;;;2.63;1.55;;;5.20;99.90;;;;;;5108904;28;20084;-57
2022/02/06 07:07:57;;;;;;;2.75;1.40;;;5.20;99.90;;;;;;5111075;28;20016;-58
2022/02/06 07:10:22;;;;;;;6.07;1.55;;;5.20;99.90;;;;;;5108873;28;20024;-58
2022/02/06 07:12:49;;;;;;;2.88;1.25;;;5.30;99.90;;;;;;5111096;28;20529;-55
2022/02/06 07:15:15;;;;;;;2.80;1.20;;;5.30;99.90;;;;;;5090425;28;20032;-58
2022/02/06 07:17:41;;;;;;;3.13;1.27;;;5.30;99.90;;;;;;5110874;28;20089;-58
2022/02/06 07:20:07;;;;;;;4.68;1.38;;;5.30;99.90;;;;;;5108650;28;20040;-56
2022/02/06 07:22:35;;;;;;;1.58;1.17;;;5.30;99.90;;;;;;5110952;28;20031;-58
2022/02/06 07:25:02;;;;;;;4.00;1.00;;;5.30;99.90;;;;;;5110602;28;20102;-59
2022/02/06 07:27:37;;;;;;;3.75;1.00;;;5.40;99.90;;;;;;5108575;28;20036;-57
2022/02/06 07:30:06;;;;;;;4.20;1.50;;;5.40;99.90;;;;;;5090335;28;20072;-58
2022/02/06 07:32:35;;;;;;;3.83;2.05;;;5.40;99.90;;;;;;5090094;28;20032;-58
2022/02/06 07:35:02;;;;;;;3.92;1.10;;;5.50;99.90;;;;;;5109504;28;20058;-58
2022/02/06 07:37:28;;;;;;;3.75;0.82;;;5.40;99.90;;;;;;5108261;28;20035;-56
2022/02/06 07:39:53;;;;;;;3.20;1.17;;;5.50;99.90;;;;;;5110300;28;20036;-58
2022/02/06 07:42:19;;;;;;;3.28;1.30;;;5.50;99.90;;;;;;5100882;28;20284;-55
2022/02/06 07:44:47;;;;;;;3.90;1.05;;;5.50;99.90;;;;;;5102015;28;20031;-57
2022/02/06 07:47:15;;;;;;;4.05;1.30;;;5.60;99.90;;;;;;5088150;28;20023;-57
2022/02/06 07:49:45;;;;;;;2.03;1.38;;;5.60;99.90;;;;;;5105414;28;20027;-58
2022/02/06 07:52:10;;;;;;;4.38;1.30;;;5.60;99.90;;;;;;5091738;28;20039;-58
2022/02/06 07:54:36;;;;;;;3.05;1.23;;;5.70;99.90;;;;;;5104950;28;20023;-59
2022/02/06 07:57:04;;;;;;;3.50;0.85;;;5.70;99.90;;;;;;5087357;28;20047;-58
2022/02/06 07:59:30;;;;;;;3.80;1.27;;;5.80;99.90;;;;;;5098906;28;20031;-57
2022/02/06 08:01:56;;;;;;;1.90;0.70;;;5.80;99.90;;;;;;5107336;28;20624;-56
2022/02/06 08:04:21;;;;;;;3.35;1.00;;;5.80;99.90;;;;;;5105195;28;20098;-57
2022/02/06 08:06:47;;;;;;;1.20;0.90;;;5.90;99.90;;;;;;5107328;28;20240;-59
2022/02/06 08:09:12;;;;;;;2.63;0.82;;;6.00;99.90;;;;;;5103259;28;20024;-54
2022/02/06 08:11:44;;;;;;;1.13;0.73;;;6.10;99.90;;;;;;5087413;28;20222;-58
2022/02/06 08:14:09;;;;;;;1.90;0.77;;;6.20;99.90;;;;;;5090588;28;20039;-55
2022/02/06 08:16:35;;;;;;;2.45;0.90;;;6.20;99.90;;;;;;5107286;28;20031;-57
2022/02/06 08:19:01;;;;;;;2.30;0.80;;;6.30;99.90;;;;;;5099448;28;20023;-57
2022/02/06 08:21:26;;;;;;;1.75;0.70;;;6.30;99.90;;;;;;5093942;28;20120;-58
2022/02/06 08:23:52;;;;;;;4.05;1.08;;;6.30;99.90;;;;;;5105417;28;20107;-56
2022/02/06 08:26:17;;;;;;;6.07;1.88;;;6.30;99.90;;;;;;5107542;28;20057;-58
2022/02/06 08:28:43;;;;;;;2.72;0.98;;;6.40;99.90;;;;;;5103376;28;20019;-58
2022/02/06 08:31:09;;;;;;;1.75;0.70;;;6.40;99.90;;;;;;5108297;28;20260;-57
2022/02/06 08:33:34;;;;;;;2.45;1.35;;;6.40;99.90;;;;;;5106329;28;20034;-56
2022/02/06 08:36:00;;;;;;;4.13;1.15;;;6.30;99.90;;;;;;5108340;28;20054;-58
2022/02/06 08:38:27;;;;;;;2.58;1.50;;;6.40;99.90;;;;;;5093429;28;20028;-56
2022/02/06 08:40:53;;;;;;;1.48;0.88;;;6.40;99.90;;;;;;5107461;28;20067;-51
2022/02/06 08:43:19;;;;;;;3.88;0.85;;;6.40;99.90;;;;;;5102366;28;20074;-51
2022/02/06 08:45:45;;;;;;;1.25;0.90;;;6.40;99.90;;;;;;5108866;28;20032;-52
2022/02/06 08:48:10;;;;;;;1.15;0.80;;;6.40;99.90;;;;;;5107375;28;20188;-49
2022/02/06 08:50:36;;;;;;;4.40;2.00;;;6.50;99.90;;;;;;5109104;28;20103;-55
2022/02/06 08:53:01;;;;;;;3.45;1.70;;;6.60;99.90;;;;;;5107207;28;20024;-50
2022/02/06 08:55:28;;;;;;;1.77;0.98;;;6.60;99.90;;;;;;5108997;28;20035;-49
2022/02/06 08:57:55;;;;;;;3.47;1.23;;;6.60;99.90;;;;;;5106957;28;20083;-49
2022/02/06 09:00:22;;;;;;;4.90;1.48;;;6.70;99.90;;;;;;5109034;28;20036;-50
2022/02/06 09:02:48;;;;;;;2.60;1.08;;;6.80;99.90;;;;;;5107055;28;20041;-49
2022/02/06 09:05:15;;;;;;;3.00;0.95;;;6.80;99.90;;;;;;5109051;28;20028;-51
2022/02/06 09:07:42;;;;;;;3.90;1.23;;;6.80;99.90;;;;;;5107082;28;20056;-50
2022/02/06 09:10:10;;;;;;;2.97;1.00;;;6.90;99.90;;;;;;5109093;28;20063;-52
2022/02/06 09:12:39;;;;;;;2.83;1.00;;;6.80;99.90;;;;;;5106970;28;20590;-50
2022/02/06 09:15:06;;;;;;;1.10;0.80;;;6.90;99.90;;;;;;5108962;28;20494;-53
2022/02/06 09:17:31;;;;;;;2.55;1.10;;;7.00;99.90;;;;;;5106729;28;20040;-55
2022/02/06 09:19:57;;;;;;;2.75;1.27;;;7.10;99.90;;;;;;5108877;28;20070;-49
2022/02/06 09:22:22;;;;;;;2.15;1.13;;;7.20;99.90;;;;;;5106983;28;20042;-51
2022/02/06 09:24:48;;;;;;;2.05;0.98;;;7.20;99.90;;;;;;5108920;28;20069;-50
2022/02/06 09:27:13;;;;;;;5.43;1.33;;;7.20;99.90;;;;;;5106610;28;20515;-53
2022/02/06 09:29:40;;;;;;;2.72;1.00;;;7.20;99.90;;;;;;5108955;28;20479;-50
2022/02/06 09:37:02;;;;;;;2.95;0.90;;;7.00;99.90;;;;;;5106836;28;20035;-50
2022/02/06 09:39:32;;;;;;;1.33;1.00;;;7.10;99.90;;;;;;5108705;28;20096;-51
2022/02/06 09:41:58;;;;;;;1.63;1.00;;;7.10;99.90;;;;;;5103530;28;20119;-51
2022/02/06 09:44:27;;;;;;;1.73;0.90;;;7.20;99.90;;;;;;5108685;28;20099;-51
2022/02/06 09:46:54;;;;;;;3.47;1.52;;;7.30;99.90;;;;;;5108543;28;20053;-50
2022/02/06 09:49:22;;;;;;;2.83;1.27;;;7.30;99.90;;;;;;5088363;28;20021;-53
2022/02/06 09:51:49;;;;;;;2.92;1.15;;;7.30;99.90;;;;;;5108276;28;20032;-51
2022/02/06 09:54:14;;;;;;;2.03;1.20;;;7.30;99.90;;;;;;5086975;28;20236;-52
2022/02/06 09:56:45;;;;;;;1.63;0.90;;;7.40;99.90;;;;;;5107689;28;20499;-63
2022/02/06 09:59:20;;;;;;;1.92;1.08;;;7.40;99.90;;;;;;5108896;28;20027;-62
2022/02/06 10:01:51;;;;;;;1.58;1.00;;;7.40;99.90;;;;;;5092268;28;20059;-62
2022/02/06 10:04:19;;;;;;;5.75;1.20;;;7.40;99.90;;;;;;5110259;28;20047;-63
2022/02/06 10:06:58;;;;;;;1.17;0.70;;;7.50;99.90;;;;;;5112260;28;20559;-62
2022/02/06 10:09:30;;;;;;;3.03;1.30;;;7.50;99.90;;;;;;5092030;28;20039;-63
2022/02/06 10:11:57;;;;;;;6.38;1.52;;;7.50;99.90;;;;;;5090368;28;20527;-62
2022/02/06 10:14:24;;;;;;;2.25;1.08;;;7.50;99.90;;;;;;5112179;28;20059;-62
2022/02/06 10:16:52;;;;;;;3.15;1.45;;;7.50;99.90;;;;;;5111780;28;20035;-63
2022/02/06 10:19:18;;;;;;;2.65;1.10;;;7.50;99.90;;;;;;5109823;28;20035;-62
2022/02/06 10:21:46;;;;;;;3.92;1.17;;;7.60;99.90;;;;;;5111656;28;20026;-62
2022/02/06 10:24:25;;;;;;;4.53;1.10;;;7.60;99.90;;;;;;5090611;28;20036;-62
2022/02/06 10:27:03;;;;;;;3.05;1.40;;;7.80;99.90;;;;;;5091659;28;20031;-63
2022/02/06 10:29:51;;;;;;;3.08;1.33;;;7.80;99.90;;;;;;5091504;28;20058;-62
2022/02/06 10:32:18;;;;;;;5.93;2.17;;;7.90;99.90;;;;;;5092647;28;20223;-62
2022/02/06 10:34:44;;;;;;;2.17;1.00;;;7.90;99.90;;;;;;5111952;28;20036;-63
2022/02/06 10:37:18;;;;;;;4.00;1.48;;;8.00;99.90;;;;;;5109462;28;20076;-63
2022/02/06 10:40:04;;;;;;;3.85;1.23;;;8.10;99.90;;;;;;5096025;28;20751;-63
2022/02/06 10:42:38;;;;;;;2.17;1.23;;;8.30;99.90;;;;;;5093367;28;20055;-62
2022/02/06 10:45:25;;;;;;;1.70;0.85;;;8.20;99.90;;;;;;5104826;28;20024;-63
2022/02/06 10:47:53;;;;;;;1.40;0.70;;;8.20;99.90;;;;;;5111641;28;20031;-63
2022/02/06 10:50:27;;;;;;;0.98;0.80;;;8.30;99.90;;;;;;5092622;28;20122;-62
2022/02/06 10:53:10;;;;;;;1.88;0.90;;;8.20;99.90;;;;;;5091313;28;20032;-62
2022/02/06 10:55:55;;;;;;;1.45;0.80;;;8.20;99.90;;;;;;5109092;28;20036;-62
2022/02/06 10:58:34;;;;;;;1.80;1.05;;;8.20;99.90;;;;;;5089543;28;20047;-62
2022/02/06 11:01:23;;;;;;;2.45;1.00;;;8.30;99.90;;;;;;5111493;28;20027;-63
2022/02/06 11:03:52;;;;;;;2.20;0.90;;;8.40;99.90;;;;;;5109274;28;20487;-62
2022/02/06 11:07:06;;;;;;;1.33;0.90;;;8.40;99.90;;;;;;5105012;28;20236;-62
2022/02/06 11:09:25;;;;;;;1.33;0.90;;;8.50;99.90;;;;;;5084824;28;20052;-62
2022/02/06 11:11:51;;;;;;;2.88;0.80;;;8.80;99.90;;;;;;5106277;28;20043;-63
2022/02/06 11:14:22;;;;;;;2.22;1.05;;;8.80;99.90;;;;;;5108198;28;20024;-62
2022/02/06 11:16:49;;;;;;;3.50;1.23;;;8.70;99.90;;;;;;5101464;28;20035;-62
2022/02/06 11:19:17;;;;;;;2.90;0.98;;;8.80;99.90;;;;;;5107784;28;20020;-61
2022/02/06 11:21:43;;;;;;;1.98;0.98;;;8.80;99.90;;;;;;5090846;28;20028;-63
2022/02/06 11:24:20;;;;;;;1.98;0.93;;;8.80;99.90;;;;;;5109592;28;20353;-63
2022/02/06 11:26:47;;;;;;;0.98;0.77;;;8.80;99.90;;;;;;5103138;28;20031;-63
2022/02/06 11:29:13;;;;;;;1.15;0.80;;;8.70;99.90;;;;;;5110522;28;20189;-63
2022/02/06 11:31:39;;;;;;;2.03;0.88;;;8.70;99.90;;;;;;5094809;28;20028;-62
2022/02/06 11:34:05;;;;;;;2.05;1.05;;;8.60;99.90;;;;;;5109767;28;20038;-63
2022/02/06 11:46:15;;;;;;;1.90;0.68;;;8.90;99.90;;;;;;5095633;28;20430;-63
2022/02/06 11:48:43;;;;;;;1.73;1.00;;;9.00;99.90;;;;;;5089526;28;20101;-63
2022/02/06 11:51:09;;;;;;;3.42;1.00;;;9.10;99.90;;;;;;5096419;28;20032;-62
2022/02/06 11:53:39;;;;;;;2.30;1.27;;;9.00;99.90;;;;;;5107308;28;20031;-63
2022/02/06 11:56:34;;;;;;;1.20;0.98;;;9.00;99.90;;;;;;5089925;28;20056;-63
2022/02/06 11:59:06;;;;;;;1.65;0.65;;;9.00;99.90;;;;;;5106771;28;20059;-63
2022/02/06 12:01:32;;;;;;;1.63;0.90;;;9.00;99.90;;;;;;5105632;28;20016;-63
2022/02/06 12:04:00;;;;;;;0.82;0.63;;;9.00;99.90;;;;;;5096365;28;20039;-63
2022/02/06 12:06:47;;;;;;;1.33;0.77;;;9.00;99.90;;;;;;5087200;28;20115;-63
2022/02/06 12:09:22;;;;;;;2.45;0.82;;;9.00;99.90;;;;;;5103098;28;20585;-62
2022/02/06 12:12:08;;;;;;;0.70;0.60;;;8.90;99.90;;;;;;5107545;28;20046;-62
2022/02/06 12:14:39;;;;;;;1.05;0.65;;;9.00;99.90;;;;;;5096270;28;20084;-63
2022/02/06 12:20:04;;;;;;;1.70;1.15;;;8.90;99.90;;;;;;5098307;28;20158;-62
2022/02/06 12:22:29;;;;;;;0.80;0.55;;;8.90;99.90;;;;;;5106737;28;20093;-63
2022/02/06 12:25:35;;;;;;;1.83;1.30;;;8.90;99.90;;;;;;5095302;28;20487;-63
2022/02/06 12:28:26;;;;;;;0.98;0.63;;;8.80;99.90;;;;;;5086753;28;20103;-63
2022/02/06 12:30:57;;;;;;;1.05;0.60;;;8.80;99.90;;;;;;5076245;28;20142;-63
2022/02/06 12:33:41;;;;;;;1.35;0.50;;;8.80;99.90;;;;;;5104244;28;20035;-63
2022/02/06 12:38:52;;;;;;;1.25;0.77;;;8.70;99.90;;;;;;5097229;28;20034;-63
2022/02/06 12:41:28;;;;;;;0.95;0.50;;;8.70;99.90;;;;;;5106845;28;20031;-63
2022/02/06 12:43:57;;;;;;;2.38;0.75;;;8.70;99.90;;;;;;5088192;28;20403;-63
2022/02/06 12:46:25;;;;;;;1.25;0.60;;;8.60;99.90;;;;;;5106520;28;20035;-63
2022/02/06 12:48:52;;;;;;;1.85;0.68;;;8.50;99.90;;;;;;5104915;28;20031;-63
2022/02/06 12:51:29;;;;;;;0.82;0.70;;;8.50;99.90;;;;;;5101244;28;20504;-63
2022/02/06 12:54:15;;;;;;;1.88;0.95;;;8.50;99.90;;;;;;5097465;28;20059;-63
2022/02/06 12:56:42;;;;;;;2.38;1.48;;;8.40;99.90;;;;;;5098287;28;20568;-63
2022/02/06 12:59:10;;;;;;;4.22;0.90;;;8.40;99.90;;;;;;5105586;28;20032;-62
2022/02/06 13:01:41;;;;;;;3.72;1.95;;;8.30;99.90;;;;;;5095012;28;20027;-63
2022/02/06 13:04:09;;;;;;;2.25;1.30;;;8.30;99.90;;;;;;5105865;28;20402;-62
2022/02/06 13:06:46;;;;;;;1.95;0.77;;;8.30;99.90;;;;;;5089419;28;20345;-63
2022/02/06 13:09:28;;;;;;;1.23;0.82;;;8.30;99.90;;;;;;5089813;28;20081;-62
2022/02/06 13:23:20;;;;;;;0.60;0.40;;;8.30;99.90;;;;;;5059227;28;20032;-63
2022/02/06 13:28:59;;;;;;;1.05;0.50;;;8.30;99.90;;;;;;5095522;28;20050;-63
2022/02/06 13:34:15;;;;;;;0.85;0.60;;;8.30;99.90;;;;;;5104445;28;20034;-63
2022/02/06 13:36:57;;;;;;;2.55;0.70;;;8.20;99.90;;;;;;5106641;28;20124;-63
2022/02/06 13:39:50;;;;;;;1.25;0.60;;;8.10;99.90;;;;;;5088923;28;20035;-64
2022/02/06 13:42:18;;;;;;;1.05;0.50;;;8.20;99.90;;;;;;5102204;28;20039;-63
2022/02/06 13:44:45;;;;;;;2.58;0.60;;;8.10;99.90;;;;;;5109099;28;20032;-64
2022/02/06 13:47:12;;;;;;;1.95;0.90;;;8.20;99.90;;;;;;5100413;28;20311;-63
2022/02/06 13:49:45;;;;;;;1.88;1.00;;;8.10;99.90;;;;;;5097845;28;20036;-64
2022/02/06 13:52:12;;;;;;;2.38;1.00;;;8.10;99.90;;;;;;5087901;28;20164;-64
2022/02/06 13:54:42;;;;;;;3.97;0.88;;;8.10;99.90;;;;;;5109161;28;20060;-64
2022/02/06 13:57:08;;;;;;;1.98;0.73;;;8.00;99.90;;;;;;5092820;28;20044;-64
2022/02/06 13:59:38;;;;;;;0.75;0.57;;;8.00;99.90;;;;;;5098460;28;20337;-64
2022/02/06 14:02:07;;;;;;;1.05;0.68;;;7.80;99.90;;;;;;5109713;28;20024;-64
2022/02/06 14:04:36;;;;;;;2.75;1.02;;;7.80;99.90;;;;;;5104287;28;20047;-64
2022/02/06 14:07:11;;;;;;;0.70;0.50;;;7.70;99.90;;;;;;5109835;28;20042;-64
2022/02/06 14:12:16;;;;;;;1.20;1.00;;;7.60;99.90;;;;;;5089287;28;20126;-63
2022/02/06 14:14:56;;;;;;;0.70;0.50;;;7.50;99.90;;;;;;5103395;28;20027;-64
2022/02/06 14:17:35;;;;;;;0.98;0.88;;;7.40;99.90;;;;;;5108449;28;20032;-64
2022/02/06 14:20:19;;;;;;;0.80;0.80;;;7.40;99.90;;;;;;5105622;28;20126;-64
2022/02/06 14:22:48;;;;;;;1.75;0.88;;;7.30;99.90;;;;;;5109858;28;20054;-64
2022/02/06 14:25:25;;;;;;;2.80;0.90;;;7.20;99.90;;;;;;5107708;28;20027;-64
2022/02/06 14:27:50;;;;;;;0.82;0.70;;;7.20;99.90;;;;;;5087573;28;20038;-63
2022/02/06 14:30:18;;;;;;;0.70;0.70;;;7.10;99.90;;;;;;5109677;28;20036;-64
2022/02/06 14:33:00;;;;;;;1.33;0.70;;;7.20;99.90;;;;;;5109358;28;20553;-63
2022/02/06 14:35:45;;;;;;;2.00;1.10;;;7.10;99.90;;;;;;5099918;28;20036;-63
2022/02/06 14:38:18;;;;;;;1.08;0.80;;;7.00;99.90;;;;;;5098632;28;20552;-63
2022/02/06 14:40:53;;;;;;;0.88;0.80;;;7.00;99.90;;;;;;5109482;28;20202;-63
2022/02/06 14:43:38;;;;;;;1.58;1.05;;;6.90;99.90;;;;;;5095769;28;20374;-63
2022/02/06 14:46:06;;;;;;;1.57;1.00;;;6.90;99.90;;;;;;5108689;28;20019;-64
2022/02/06 14:48:32;;;;;;;0.80;0.70;;;6.90;99.90;;;;;;5106928;28;20059;-64
2022/02/06 14:50:58;;;;;;;1.90;0.80;;;6.80;99.90;;;;;;5108928;28;20503;-63
2022/02/06 14:53:25;;;;;;;1.13;0.73;;;6.80;99.90;;;;;;5106735;28;20089;-63
2022/02/06 14:55:55;;;;;;;1.25;0.82;;;6.80;99.90;;;;;;5108959;28;20058;-63
2022/02/06 14:58:21;;;;;;;1.08;0.68;;;6.70;99.90;;;;;;5103522;28;20043;-63
2022/02/06 15:00:47;;;;;;;0.88;0.80;;;6.70;99.90;;;;;;5108671;28;20038;-64
2022/02/06 15:03:13;;;;;;;1.25;0.75;;;6.70;99.90;;;;;;5105225;28;20031;-63
2022/02/06 15:05:39;;;;;;;0.88;0.77;;;6.60;99.90;;;;;;5090338;28;20383;-63
2022/02/06 15:08:06;;;;;;;0.70;0.70;;;6.60;99.90;;;;;;5092435;28;20093;-63
2022/02/06 15:10:35;;;;;;;1.48;0.68;;;6.60;99.90;;;;;;5108197;28;20031;-63
2022/02/06 15:13:02;;;;;;;1.63;0.85;;;6.50;99.90;;;;;;5106542;28;20416;-63
2022/02/06 15:15:33;;;;;;;1.00;0.75;;;6.50;99.90;;;;;;5103345;28;20028;-63
2022/02/06 15:18:08;;;;;;;1.00;0.80;;;6.50;99.90;;;;;;5085369;28;20032;-63
2022/02/06 15:20:34;;;;;;;1.15;0.70;;;6.50;99.90;;;;;;5105426;28;20422;-63
2022/02/06 15:23:01;;;;;;;1.77;0.77;;;6.40;99.90;;;;;;5094800;28;20111;-63
2022/02/06 15:25:26;;;;;;;1.67;0.77;;;6.40;99.90;;;;;;5108431;28;20051;-64
2022/02/06 15:27:52;;;;;;;1.60;0.80;;;6.40;99.90;;;;;;5091824;28;20230;-65
2022/02/06 15:30:17;;;;;;;4.65;2.33;;;6.40;99.90;;;;;;5108121;28;20043;-65
2022/02/06 15:32:42;;;;;;;2.47;1.42;;;6.30;99.90;;;;;;5101197;28;20444;-65
2022/02/06 15:35:08;;;;;;;1.92;1.55;;;6.30;99.90;;;;;;5086143;28;20028;-63
2022/02/06 15:37:36;;;;;;;2.03;0.90;;;6.30;99.90;;;;;;5107138;28;20100;-64
2022/02/06 15:40:04;;;;;;;1.52;1.30;;;6.20;99.90;;;;;;5105905;28;20030;-65
2022/02/06 15:42:29;;;;;;;1.38;1.08;;;6.20;99.90;;;;;;5103564;28;20106;-66
2022/02/06 15:44:55;;;;;;;3.45;2.28;;;6.20;99.90;;;;;;5105690;28;20106;-64
2022/02/06 15:47:21;;;;;;;4.03;2.28;;;6.20;99.90;;;;;;5107950;28;20038;-63
2022/02/06 15:49:46;;;;;;;7.63;3.28;;;6.20;99.90;;;;;;5089495;28;20032;-64
2022/02/06 15:52:12;;;;;;;1.98;1.55;;;6.10;99.90;;;;;;5106907;28;20038;-63